createdAt,value
2017-12-20T00:01:41.184Z,13.10
2017-12-20T00:04:08.092Z,16.60
2017-12-20T00:06:36.038Z,18.20
2017-12-20T00:09:02.959Z,15.98
2017-12-20T00:11:30.648Z,22.05
2017-12-20T00:13:57.561Z,19.02
2017-12-20T00:16:25.250Z,22.92
2017-12-20T00:18:52.170Z,22.52
2017-12-20T00:21:19.863Z,22.25
2017-12-20T00:23:46.784Z,26.17
2017-12-20T00:26:13.715Z,27.52
2017-12-20T00:28:41.397Z,22.27
2017-12-20T00:31:08.320Z,26.42
2017-12-20T00:33:36.031Z,27.45
2017-12-20T00:36:02.962Z,29.15
2017-12-20T00:38:29.888Z,25.80
2017-12-20T00:40:56.829Z,25.50
2017-12-20T00:43:23.752Z,28.12
2017-12-20T00:45:51.444Z,24.12
2017-12-20T00:48:18.375Z,24.67
2017-12-20T00:50:46.076Z,24.63
2017-12-20T00:53:12.989Z,29.33
2017-12-20T00:55:39.927Z,23.17
2017-12-20T00:58:06.937Z,25.17
2017-12-20T01:00:33.872Z,31.48
2017-12-20T01:03:00.784Z,31.48
2017-12-20T01:05:27.716Z,28.27
2017-12-20T01:07:55.387Z,34.55
2017-12-20T01:10:22.293Z,37.53
2017-12-20T01:12:49.248Z,35.47
2017-12-20T01:15:16.933Z,38.03
2017-12-20T01:17:43.864Z,31.83
2017-12-20T01:20:10.789Z,30.90
2017-12-20T01:22:38.504Z,37.88
2017-12-20T01:25:05.465Z,36.50
2017-12-20T01:27:32.380Z,29.92
2017-12-20T01:29:59.304Z,28.70
2017-12-20T01:32:26.228Z,26.27
2017-12-20T01:34:53.904Z,30.42
2017-12-20T01:37:21.576Z,29.30
2017-12-20T01:39:48.497Z,28.83
2017-12-20T01:42:16.181Z,27.83
2017-12-20T01:44:43.496Z,34.40
2017-12-20T01:47:10.408Z,36.05
2017-12-20T01:49:37.317Z,42.38
2017-12-20T01:52:05.013Z,38.70
2017-12-20T01:54:32.713Z,33.33
2017-12-20T01:56:59.625Z,31.10
2017-12-20T01:59:26.553Z,35.28
2017-12-20T02:01:54.241Z,32.83
2017-12-20T02:04:21.160Z,33.10
2017-12-20T02:06:48.068Z,33.00
2017-12-20T02:09:14.993Z,32.80
2017-12-20T02:11:41.903Z,30.77
2017-12-20T02:14:08.835Z,33.53
2017-12-20T02:16:35.740Z,30.60
2017-12-20T02:19:02.670Z,32.13
2017-12-20T02:21:29.576Z,31.95
2017-12-20T02:23:56.504Z,34.05
2017-12-20T02:26:23.408Z,32.17
2017-12-20T02:28:50.312Z,31.65
2017-12-20T02:31:17.228Z,33.13
2017-12-20T02:33:44.164Z,35.85
2017-12-20T02:36:11.076Z,32.83
2017-12-20T02:38:37.983Z,31.92
2017-12-20T02:41:08.631Z,32.65
2017-12-20T02:43:36.338Z,33.80
2017-12-20T02:46:03.277Z,34.92
2017-12-20T02:48:30.184Z,40.53
2017-12-20T02:50:57.868Z,32.17
2017-12-20T02:53:24.772Z,30.37
2017-12-20T02:55:51.700Z,36.58
2017-12-20T02:58:18.615Z,39.03
2017-12-20T03:00:45.545Z,29.77
2017-12-20T03:03:12.452Z,38.45
2017-12-20T03:05:39.380Z,25.15
2017-12-20T03:08:06.290Z,28.85
2017-12-20T03:10:33.221Z,32.95
2017-12-20T03:13:00.144Z,31.77
2017-12-20T03:15:27.085Z,29.08
2017-12-20T03:17:54.001Z,30.50
2017-12-20T03:20:21.680Z,34.22
2017-12-20T03:22:49.381Z,33.35
2017-12-20T03:25:16.293Z,33.60
2017-12-20T03:27:43.984Z,32.15
2017-12-20T03:30:10.899Z,32.40
2017-12-20T03:32:37.820Z,32.28
2017-12-20T03:35:04.750Z,35.75
2017-12-20T03:37:32.437Z,31.40
2017-12-20T03:40:00.116Z,32.33
2017-12-20T03:42:27.059Z,30.20
2017-12-20T03:44:53.976Z,33.13
2017-12-20T03:47:20.912Z,35.63
2017-12-20T03:49:47.817Z,30.52
2017-12-20T03:52:14.742Z,34.10
2017-12-20T03:54:41.669Z,37.90
2017-12-20T03:57:10.273Z,28.30
2017-12-20T03:59:37.211Z,26.87
2017-12-20T04:02:04.148Z,29.85
2017-12-20T04:04:31.060Z,27.95
2017-12-20T04:06:57.982Z,30.40
2017-12-20T04:09:24.894Z,29.25
2017-12-20T04:11:51.816Z,28.33
2017-12-20T04:14:19.493Z,25.92
2017-12-20T04:16:46.421Z,28.70
2017-12-20T04:19:14.092Z,27.67
2017-12-20T04:21:41.042Z,29.70
2017-12-20T04:24:07.956Z,26.55
2017-12-20T04:26:34.869Z,26.85
2017-12-20T04:29:01.847Z,36.63
2017-12-20T04:31:28.724Z,25.65
2017-12-20T04:33:55.673Z,31.05
2017-12-20T04:36:22.596Z,31.02
2017-12-20T04:38:50.293Z,28.67
2017-12-20T04:41:17.205Z,27.08
2017-12-20T04:43:44.915Z,27.17
2017-12-20T04:46:11.821Z,29.85
2017-12-20T04:48:38.749Z,25.95
2017-12-20T04:51:06.425Z,33.17
2017-12-20T04:53:33.349Z,28.77
2017-12-20T04:56:00.265Z,29.60
2017-12-20T04:58:27.193Z,31.55
2017-12-20T05:00:54.872Z,27.00
2017-12-20T05:03:21.794Z,31.75
2017-12-20T05:05:48.717Z,26.55
2017-12-20T05:08:16.421Z,28.55
2017-12-20T05:10:43.345Z,25.83
2017-12-20T05:13:10.274Z,26.70
2017-12-20T05:15:37.181Z,24.02
2017-12-20T05:18:04.124Z,24.40
2017-12-20T05:20:31.814Z,24.75
2017-12-20T05:22:58.736Z,23.15
2017-12-20T05:25:25.652Z,31.00
2017-12-20T05:27:52.571Z,30.05
2017-12-20T05:30:20.258Z,25.50
2017-12-20T05:32:47.231Z,27.60
2017-12-20T05:35:14.149Z,25.73
2017-12-20T05:37:41.071Z,21.25
2017-12-20T05:40:07.996Z,23.42
2017-12-20T05:42:35.673Z,22.98
2017-12-20T05:45:03.369Z,29.70
2017-12-20T05:47:30.321Z,21.17
2017-12-20T05:49:57.249Z,19.25
2017-12-20T05:52:24.161Z,23.02
2017-12-20T05:54:51.881Z,23.62
2017-12-20T05:57:18.800Z,19.80
2017-12-20T05:59:45.728Z,21.85
2017-12-20T06:02:12.637Z,24.02
2017-12-20T06:04:39.570Z,24.37
2017-12-20T06:07:07.244Z,20.35
2017-12-20T06:09:34.940Z,26.45
2017-12-20T06:12:01.849Z,20.67
2017-12-20T06:14:28.780Z,20.67
2017-12-20T06:16:56.451Z,22.95
2017-12-20T06:19:24.158Z,17.12
2017-12-20T06:21:51.068Z,22.33
2017-12-20T06:24:18.061Z,27.65
2017-12-20T06:26:44.922Z,22.15
2017-12-20T06:29:11.845Z,24.85
2017-12-20T06:31:38.753Z,29.40
2017-12-20T06:34:05.672Z,21.92
2017-12-20T06:36:33.351Z,26.12
2017-12-20T06:39:00.267Z,23.60
2017-12-20T06:41:27.179Z,28.08
2017-12-20T06:43:54.101Z,23.12
2017-12-20T06:46:21.020Z,30.98
2017-12-20T06:48:47.967Z,28.92
2017-12-20T06:51:14.901Z,26.42
2017-12-20T06:53:41.843Z,29.70
2017-12-20T06:56:08.769Z,30.15
2017-12-20T06:58:35.705Z,27.40
2017-12-20T07:01:02.634Z,25.02
2017-12-20T07:03:30.325Z,29.95
2017-12-20T07:05:57.232Z,28.90
2017-12-20T07:08:24.953Z,26.60
2017-12-20T07:10:51.882Z,27.58
2017-12-20T07:13:18.817Z,27.85
2017-12-20T07:15:46.638Z,25.65
2017-12-20T07:18:13.560Z,28.87
2017-12-20T07:20:41.232Z,28.25
2017-12-20T07:23:08.145Z,28.80
2017-12-20T07:25:35.091Z,22.27
2017-12-20T07:28:02.107Z,29.25
2017-12-20T07:30:29.019Z,28.10
2017-12-20T07:32:56.881Z,26.80
2017-12-20T07:35:23.785Z,21.27
2017-12-20T07:37:51.455Z,23.77
2017-12-20T07:40:19.140Z,19.48
2017-12-20T07:42:46.062Z,22.87
2017-12-20T07:45:12.998Z,24.77
2017-12-20T07:47:40.693Z,27.73
2017-12-20T07:50:07.600Z,18.95
2017-12-20T07:52:35.392Z,22.70
2017-12-20T07:55:02.301Z,21.95
2017-12-20T07:57:29.223Z,21.10
2017-12-20T07:59:56.145Z,20.73
2017-12-20T08:02:23.043Z,23.90
2017-12-20T08:04:50.768Z,22.75
2017-12-20T08:07:17.708Z,23.73
2017-12-20T08:09:44.620Z,20.60
2017-12-20T08:12:11.570Z,26.58
2017-12-20T08:14:38.480Z,25.33
2017-12-20T08:17:06.156Z,23.20
2017-12-20T08:19:33.847Z,25.77
2017-12-20T08:22:00.760Z,19.67
2017-12-20T08:24:28.466Z,24.20
2017-12-20T08:26:55.394Z,21.98
2017-12-20T08:29:22.321Z,22.15
2017-12-20T08:31:49.999Z,23.15
2017-12-20T08:34:16.938Z,19.65
2017-12-20T08:36:43.850Z,22.20
2017-12-20T08:39:10.765Z,19.33
2017-12-20T08:41:37.693Z,21.87
2017-12-20T08:44:04.601Z,19.70
2017-12-20T08:46:32.297Z,20.62
2017-12-20T08:48:59.209Z,21.02
2017-12-20T08:51:26.137Z,19.90
2017-12-20T08:53:53.047Z,25.92
2017-12-20T08:56:19.971Z,19.50
2017-12-20T08:58:46.887Z,16.90
2017-12-20T09:01:13.816Z,19.85
2017-12-20T09:03:41.488Z,20.17
2017-12-20T09:06:08.408Z,22.70
2017-12-20T09:08:36.089Z,19.45
2017-12-20T09:11:03.016Z,21.42
2017-12-20T09:13:30.899Z,16.58
2017-12-20T09:15:57.833Z,16.80
2017-12-20T09:18:24.741Z,19.52
2017-12-20T09:20:51.668Z,20.58
2017-12-20T09:23:20.261Z,23.42
2017-12-20T09:25:47.202Z,18.77
2017-12-20T09:28:14.104Z,20.40
2017-12-20T09:30:41.016Z,16.08
2017-12-20T09:33:07.940Z,18.58
2017-12-20T09:35:34.849Z,26.02
2017-12-20T09:38:02.553Z,28.45
2017-12-20T09:40:29.461Z,27.83
2017-12-20T09:42:57.153Z,20.15
2017-12-20T09:45:24.060Z,21.23
2017-12-20T09:47:50.990Z,18.30
2017-12-20T09:50:18.672Z,21.75
2017-12-20T09:52:45.597Z,23.10
2017-12-20T09:55:13.280Z,22.45
2017-12-20T09:57:40.200Z,20.27
2017-12-20T10:00:07.877Z,17.45
2017-12-20T10:02:34.820Z,20.65
2017-12-20T10:05:01.746Z,18.40
2017-12-20T10:07:29.447Z,19.65
2017-12-20T10:09:56.375Z,20.20
2017-12-20T10:12:23.305Z,21.45
2017-12-20T10:14:50.216Z,18.83
2017-12-20T10:17:17.148Z,19.58
2017-12-20T10:19:44.829Z,17.62
2017-12-20T10:22:11.753Z,21.50
2017-12-20T10:24:39.454Z,21.40
2017-12-20T10:27:06.381Z,21.27
2017-12-20T10:29:33.297Z,20.15
2017-12-20T10:34:27.920Z,17.40
2017-12-20T10:36:55.611Z,29.23
2017-12-20T10:39:22.540Z,20.77
2017-12-20T10:41:50.221Z,20.15
2017-12-20T10:44:17.163Z,18.62
2017-12-20T10:46:44.075Z,21.25
2017-12-20T10:49:11.002Z,21.83
2017-12-20T10:51:37.917Z,17.60
2017-12-20T10:54:04.840Z,22.83
2017-12-20T10:56:31.760Z,22.52
2017-12-20T10:58:59.448Z,21.95
2017-12-20T11:01:26.359Z,23.70
2017-12-20T11:03:53.274Z,21.90
2017-12-20T11:06:20.201Z,21.05
2017-12-20T11:08:47.104Z,23.77
2017-12-20T11:11:14.823Z,21.58
2017-12-20T11:13:41.732Z,23.42
2017-12-20T11:16:08.670Z,24.63
2017-12-20T11:18:35.588Z,27.40
2017-12-20T11:21:03.285Z,17.85
2017-12-20T11:23:30.196Z,18.12
2017-12-20T11:25:57.129Z,16.55
2017-12-20T11:28:24.814Z,18.58
2017-12-20T11:30:51.749Z,18.75
2017-12-20T11:33:18.666Z,18.50
2017-12-20T11:35:45.588Z,14.35
2017-12-20T11:38:12.500Z,20.05
2017-12-20T11:40:39.428Z,22.92
2017-12-20T11:43:06.336Z,20.10
2017-12-20T11:45:33.325Z,16.08
2017-12-20T11:48:00.202Z,18.98
2017-12-20T11:50:27.128Z,21.65
2017-12-20T11:52:54.040Z,27.05
2017-12-20T11:55:21.729Z,23.23
2017-12-20T11:57:48.643Z,26.52
2017-12-20T12:00:15.569Z,24.30
2017-12-20T12:02:42.484Z,24.20
2017-12-20T12:05:09.409Z,18.80
2017-12-20T12:07:36.321Z,29.48
2017-12-20T12:10:05.021Z,25.48
2017-12-20T12:12:31.945Z,19.85
2017-12-20T12:14:59.645Z,27.80
2017-12-20T12:17:26.568Z,19.48
2017-12-20T12:19:53.501Z,28.90
2017-12-20T12:22:20.412Z,23.25
2017-12-20T12:24:48.358Z,28.58
2017-12-20T12:27:15.293Z,24.55
2017-12-20T12:29:42.203Z,33.53
2017-12-20T12:32:09.895Z,29.85
2017-12-20T12:34:36.804Z,28.98
2017-12-20T12:37:03.724Z,23.20
2017-12-20T12:39:32.064Z,29.87
2017-12-20T12:41:58.988Z,29.35
2017-12-20T12:44:25.900Z,32.58
2017-12-20T12:46:52.826Z,22.80
2017-12-20T12:49:19.736Z,26.55
2017-12-20T12:51:46.659Z,23.35
2017-12-20T12:54:14.504Z,23.27
2017-12-20T12:56:41.420Z,28.83
2017-12-20T12:59:08.332Z,29.27
2017-12-20T13:01:35.272Z,27.92
2017-12-20T13:04:02.948Z,23.23
2017-12-20T13:06:30.783Z,25.33
2017-12-20T13:08:57.712Z,23.67
2017-12-20T13:11:25.404Z,23.17
2017-12-20T13:13:52.311Z,20.73
2017-12-20T13:16:19.991Z,22.67
2017-12-20T13:18:46.936Z,24.58
2017-12-20T13:21:13.860Z,26.77
2017-12-20T13:23:41.544Z,20.85
2017-12-20T13:26:08.500Z,18.55
2017-12-20T13:28:35.423Z,25.23
2017-12-20T13:31:03.100Z,25.67
2017-12-20T13:33:30.036Z,25.55
2017-12-20T13:35:56.956Z,27.27
2017-12-20T13:38:23.915Z,23.62
2017-12-20T13:40:50.832Z,31.42
2017-12-20T13:43:17.779Z,24.55
2017-12-20T13:45:44.702Z,13.32
2017-12-20T13:48:11.640Z,21.30
2017-12-20T13:50:38.549Z,22.35
2017-12-20T13:53:05.483Z,22.08
2017-12-20T13:55:33.164Z,22.65
2017-12-20T13:58:00.098Z,20.42
2017-12-20T14:00:27.795Z,22.23
2017-12-20T14:02:54.743Z,22.10
2017-12-20T14:05:22.664Z,18.25
2017-12-20T14:07:49.581Z,25.27
2017-12-20T14:10:16.507Z,18.42
2017-12-20T14:12:44.228Z,24.95
2017-12-20T14:15:11.172Z,20.65
2017-12-20T14:17:38.140Z,19.87
2017-12-20T14:20:05.053Z,17.50
2017-12-20T14:22:31.996Z,22.30
2017-12-20T14:25:00.977Z,19.12
2017-12-20T14:27:27.941Z,15.80
2017-12-20T14:29:54.857Z,18.20
2017-12-20T14:32:21.833Z,21.98
2017-12-20T14:34:48.749Z,19.55
2017-12-20T14:37:15.680Z,17.27
2017-12-20T14:39:42.601Z,19.15
2017-12-20T14:42:10.532Z,19.70
2017-12-20T14:44:37.450Z,21.60
2017-12-20T14:47:04.385Z,19.87
2017-12-20T14:49:31.310Z,23.25
2017-12-20T14:51:58.249Z,19.23
2017-12-20T14:54:26.188Z,20.92
2017-12-20T14:56:53.124Z,17.55
2017-12-20T14:59:20.037Z,17.23
2017-12-20T15:01:46.994Z,15.27
2017-12-20T15:04:14.690Z,15.13
2017-12-20T15:06:41.633Z,16.08
2017-12-20T15:09:08.551Z,17.10
2017-12-20T15:11:36.268Z,14.87
2017-12-20T15:14:03.201Z,16.52
2017-12-20T15:16:33.649Z,18.62
2017-12-20T15:19:05.440Z,18.77
2017-12-20T15:21:32.372Z,13.93
2017-12-20T15:24:00.253Z,17.90
2017-12-20T15:26:27.945Z,16.02
2017-12-20T15:28:54.859Z,20.55
2017-12-20T15:31:22.569Z,22.73
2017-12-20T15:33:49.476Z,22.35
2017-12-20T15:36:16.400Z,22.85
2017-12-20T15:38:44.075Z,21.83
2017-12-20T15:41:11.785Z,27.30
2017-12-20T15:43:38.713Z,25.50
2017-12-20T15:46:05.661Z,23.27
2017-12-20T15:48:32.620Z,24.25
2017-12-20T15:50:59.573Z,23.80
2017-12-20T15:53:26.484Z,26.02
2017-12-20T15:55:53.421Z,23.12
2017-12-20T15:58:20.348Z,24.37
2017-12-20T16:00:49.049Z,30.45
2017-12-20T16:03:15.978Z,30.75
2017-12-20T16:05:43.649Z,29.87
2017-12-20T16:08:11.337Z,32.25
2017-12-20T16:10:39.152Z,33.53
2017-12-20T16:13:06.096Z,39.65
2017-12-20T16:15:33.010Z,36.00
2017-12-20T16:17:59.945Z,33.70
2017-12-20T16:20:27.760Z,32.78
2017-12-20T16:22:55.459Z,33.83
2017-12-20T16:25:22.369Z,30.75
2017-12-20T16:27:50.082Z,38.65
2017-12-20T16:30:16.988Z,43.20
2017-12-20T16:32:44.671Z,39.85
2017-12-20T16:35:11.583Z,39.08
2017-12-20T16:37:39.264Z,37.67
2017-12-20T16:40:06.189Z,43.78
2017-12-20T16:42:33.097Z,37.50
2017-12-20T16:45:00.049Z,44.08
2017-12-20T16:47:26.981Z,37.45
2017-12-20T16:49:54.801Z,51.75
2017-12-20T16:52:22.518Z,52.20
2017-12-20T16:54:49.433Z,43.75
2017-12-20T16:57:19.713Z,43.70
2017-12-20T16:59:46.641Z,37.13
2017-12-20T17:02:13.569Z,43.03
2017-12-20T17:04:40.497Z,49.03
2017-12-20T17:07:07.409Z,45.08
2017-12-20T17:09:34.349Z,48.95
2017-12-20T17:12:01.313Z,43.72
2017-12-20T17:14:28.273Z,54.88
2017-12-20T17:16:56.145Z,39.35
2017-12-20T17:19:23.052Z,33.00
2017-12-20T17:21:50.016Z,38.03
2017-12-20T17:24:17.696Z,29.80
2017-12-20T17:26:44.613Z,29.30
2017-12-20T17:29:11.545Z,26.95
2017-12-20T17:31:38.468Z,20.60
2017-12-20T17:34:05.392Z,26.87
2017-12-20T17:36:32.308Z,25.60
2017-12-20T17:38:59.242Z,23.35
2017-12-20T17:41:26.937Z,23.80
2017-12-20T17:43:53.853Z,22.80
2017-12-20T17:46:20.803Z,21.58
2017-12-20T17:48:48.489Z,22.00
2017-12-20T17:51:15.441Z,33.95
2017-12-20T17:53:42.363Z,28.65
2017-12-20T17:56:09.306Z,23.35
2017-12-20T17:58:36.241Z,25.88
2017-12-20T18:01:03.160Z,22.87
2017-12-20T18:03:30.082Z,23.35
2017-12-20T18:05:56.994Z,26.27
2017-12-20T18:08:23.915Z,29.20
2017-12-20T18:10:50.834Z,22.23
2017-12-20T18:13:23.910Z,27.77
2017-12-20T18:15:51.608Z,26.67
2017-12-20T18:18:18.540Z,33.15
2017-12-20T18:20:47.403Z,37.13
2017-12-20T18:23:14.324Z,23.17
2017-12-20T18:25:41.276Z,30.02
2017-12-20T18:28:08.187Z,32.63
2017-12-20T18:30:38.973Z,30.58
2017-12-20T18:33:05.948Z,25.15
2017-12-20T18:35:32.885Z,29.95
2017-12-20T18:37:59.856Z,34.00
2017-12-20T18:40:26.770Z,32.63
2017-12-20T18:42:53.680Z,34.20
2017-12-20T18:45:20.626Z,26.42
2017-12-20T18:47:47.594Z,33.42
2017-12-20T18:50:14.541Z,27.67
2017-12-20T18:52:41.458Z,28.25
2017-12-20T18:55:09.205Z,22.75
2017-12-20T18:57:36.157Z,29.20
2017-12-20T19:00:03.862Z,25.42
2017-12-20T19:02:30.806Z,27.85
2017-12-20T19:04:58.684Z,33.22
2017-12-20T19:07:25.596Z,27.20
2017-12-20T19:09:53.496Z,33.08
2017-12-20T19:12:20.404Z,28.70
2017-12-20T19:14:47.335Z,30.45
2017-12-20T19:17:14.477Z,30.83
2017-12-20T19:19:42.429Z,34.83
2017-12-20T19:22:09.346Z,32.47
2017-12-20T19:24:37.037Z,28.83
2017-12-20T19:27:03.943Z,35.22
2017-12-20T19:29:30.867Z,29.80
2017-12-20T19:31:57.768Z,36.25
2017-12-20T19:34:25.464Z,24.37
2017-12-20T19:36:52.386Z,24.58
2017-12-20T19:39:19.362Z,37.88
2017-12-20T19:41:46.304Z,35.45
2017-12-20T19:44:13.238Z,27.50
2017-12-20T19:46:40.156Z,34.53
2017-12-20T19:49:07.090Z,21.45
2017-12-20T19:51:33.996Z,47.38
2017-12-20T19:54:01.721Z,32.97
2017-12-20T19:56:28.649Z,31.30
2017-12-20T19:58:55.597Z,37.38
2017-12-20T20:01:22.502Z,35.72
2017-12-20T20:03:59.473Z,32.88
2017-12-20T20:06:26.376Z,37.75
2017-12-20T20:08:53.314Z,27.75
2017-12-20T20:11:20.230Z,36.50
2017-12-20T20:13:47.163Z,36.13
2017-12-20T20:16:14.080Z,31.92
2017-12-20T20:18:41.939Z,28.83
2017-12-20T20:21:09.616Z,31.40
2017-12-20T20:23:38.322Z,28.45
2017-12-20T20:26:05.233Z,34.88
2017-12-20T20:28:32.166Z,42.75
2017-12-20T20:30:59.840Z,43.33
2017-12-20T20:33:26.766Z,40.67
2017-12-20T20:35:53.663Z,42.92
2017-12-20T20:38:21.343Z,42.10
2017-12-20T20:40:48.256Z,36.95
2017-12-20T20:43:15.190Z,57.40
2017-12-20T20:45:45.760Z,49.42
2017-12-20T20:48:12.676Z,38.92
2017-12-20T20:50:40.600Z,38.72
2017-12-20T20:53:08.308Z,34.17
2017-12-20T20:55:35.221Z,39.22
2017-12-20T20:58:02.917Z,35.75
2017-12-20T21:00:29.833Z,33.60
2017-12-20T21:02:56.763Z,41.13
2017-12-20T21:05:23.673Z,31.30
2017-12-20T21:07:51.168Z,34.33
2017-12-20T21:10:18.079Z,30.67
2017-12-20T21:12:45.000Z,27.73
2017-12-20T21:15:11.905Z,39.00
2017-12-20T21:17:39.595Z,41.37
2017-12-20T21:20:07.428Z,32.05
2017-12-20T21:22:35.144Z,27.95
2017-12-20T21:25:03.815Z,31.15
2017-12-20T21:27:30.740Z,34.63
2017-12-20T21:29:57.665Z,30.92
2017-12-20T21:32:25.381Z,35.72
2017-12-20T21:34:52.325Z,34.17
2017-12-20T21:37:19.232Z,35.75
2017-12-20T21:39:46.148Z,34.92
2017-12-20T21:42:13.089Z,33.88
2017-12-20T21:44:40.010Z,33.85
2017-12-20T21:47:07.689Z,36.70
2017-12-20T21:49:34.619Z,34.38
2017-12-20T21:52:01.535Z,45.40
2017-12-20T21:54:28.492Z,32.55
2017-12-20T21:56:56.175Z,38.20
2017-12-20T21:59:23.881Z,32.78
2017-12-20T22:01:50.798Z,27.65
2017-12-20T22:04:17.733Z,28.15
2017-12-20T22:06:44.648Z,27.75
2017-12-20T22:09:12.343Z,29.70
2017-12-20T22:11:39.252Z,27.73
2017-12-20T22:14:06.177Z,32.05
2017-12-20T22:16:33.108Z,42.45
2017-12-20T22:19:00.041Z,36.75
2017-12-20T22:21:27.732Z,33.38
2017-12-20T22:23:55.588Z,34.33
2017-12-20T22:26:23.264Z,38.75
2017-12-20T22:28:50.189Z,30.05
2017-12-20T22:31:17.173Z,31.27
2017-12-20T22:33:44.116Z,42.03
2017-12-20T22:36:11.029Z,37.55
2017-12-20T22:38:38.705Z,44.67
2017-12-20T22:41:05.634Z,38.55
2017-12-20T22:43:33.308Z,35.33
2017-12-20T22:46:00.238Z,31.75
2017-12-20T22:48:27.187Z,42.67
2017-12-20T22:50:54.114Z,37.13
2017-12-20T22:53:21.016Z,42.53
2017-12-20T22:55:47.936Z,38.15
2017-12-20T22:58:19.439Z,40.70
2017-12-20T23:00:47.200Z,34.72
2017-12-20T23:03:14.103Z,44.65
2017-12-20T23:05:41.028Z,43.03
2017-12-20T23:08:07.932Z,38.25
2017-12-20T23:10:35.627Z,32.28
2017-12-20T23:13:02.539Z,33.60
2017-12-20T23:15:30.234Z,36.38
2017-12-20T23:17:57.140Z,33.30
2017-12-20T23:20:24.058Z,41.63
2017-12-20T23:22:50.974Z,30.90
2017-12-20T23:25:17.881Z,32.28
2017-12-20T23:27:45.576Z,31.48
2017-12-20T23:30:12.502Z,28.00
2017-12-20T23:32:39.413Z,32.63
2017-12-20T23:35:06.316Z,38.75
2017-12-20T23:37:33.239Z,32.45
2017-12-20T23:40:00.148Z,28.02
2017-12-20T23:42:27.097Z,29.05
2017-12-20T23:44:54.008Z,29.92
2017-12-20T23:47:20.961Z,37.30
2017-12-20T23:49:47.880Z,33.88
2017-12-20T23:52:14.801Z,30.42
2017-12-20T23:54:42.652Z,23.00
2017-12-20T23:57:10.340Z,22.33
2017-12-20T23:59:37.248Z,22.30
